createdAt,value
2023-05-02T00:01:18.867Z,97367.53
2023-05-02T00:04:20.858Z,97377.63
2023-05-02T00:07:22.836Z,97367.69
2023-05-02T00:10:24.358Z,97373.63
2023-05-02T00:13:25.910Z,97377.63
2023-05-02T00:16:27.494Z,97371.88
2023-05-02T00:19:29.005Z,97377.97
2023-05-02T00:22:30.584Z,97365.75
2023-05-02T00:25:32.067Z,97369.06
2023-05-02T00:28:33.566Z,97374.81
2023-05-02T00:31:35.798Z,97384.75
2023-05-02T00:34:37.335Z,97372.22
2023-05-02T00:37:39.230Z,97378.34
2023-05-02T00:40:48.167Z,97391.06
2023-05-02T00:43:49.709Z,97392.19
2023-05-02T00:46:52.783Z,97387.88
2023-05-02T00:49:54.390Z,97385.88
2023-05-02T00:52:55.950Z,97392.16
2023-05-02T00:56:01.817Z,97382.69
2023-05-02T00:59:04.778Z,97394.13
2023-05-02T01:02:26.295Z,97395.47
2023-05-02T01:05:38.337Z,97386.34
2023-05-02T01:08:48.391Z,97388.34
2023-05-02T01:12:08.980Z,97392.16
2023-05-02T01:15:19.143Z,97395.50
2023-05-02T01:18:24.531Z,97391.50
2023-05-02T01:21:28.001Z,97395.16
2023-05-02T01:24:35.668Z,97390.19
2023-05-02T01:28:09.362Z,97400.13
2023-05-02T01:31:12.061Z,97399.78
2023-05-02T01:34:13.691Z,97398.63
2023-05-02T01:37:18.400Z,97402.78
2023-05-02T01:40:22.474Z,97396.47
2023-05-02T01:43:24.844Z,97406.06
2023-05-02T01:46:31.449Z,97407.03
2023-05-02T01:49:34.873Z,97403.75
2023-05-02T01:52:37.263Z,97402.44
2023-05-02T01:55:40.814Z,97413.00
2023-05-02T01:58:44.277Z,97398.47
2023-05-02T02:01:46.773Z,97397.50
2023-05-02T02:04:49.149Z,97405.09
2023-05-02T02:07:50.782Z,97408.41
2023-05-02T02:10:59.385Z,97409.03
2023-05-02T02:14:06.769Z,97403.59
2023-05-02T02:17:15.150Z,97410.38
2023-05-02T02:20:17.729Z,97404.94
2023-05-02T02:23:23.212Z,97405.81
2023-05-02T02:26:24.773Z,97409.91
2023-05-02T02:29:26.606Z,97413.69
2023-05-02T02:32:28.099Z,97410.38
2023-05-02T02:35:37.498Z,97407.56
2023-05-02T02:38:48.144Z,97418.31
2023-05-02T02:42:32.675Z,97414.22
2023-05-02T02:45:38.344Z,97414.72
2023-05-02T02:49:01.026Z,97416.00
2023-05-02T02:52:10.535Z,97422.31
2023-05-02T02:55:38.994Z,97423.84
2023-05-02T02:58:54.557Z,97426.16
2023-05-02T03:02:07.224Z,97433.44
2023-05-02T03:05:10.437Z,97432.47
2023-05-02T03:08:12.001Z,97433.31
2023-05-02T03:11:13.779Z,97438.22
2023-05-02T03:14:15.530Z,97431.94
2023-05-02T03:17:16.989Z,97432.25
2023-05-02T03:20:18.990Z,97438.19
2023-05-02T03:23:20.538Z,97446.09
2023-05-02T03:26:22.863Z,97438.34
2023-05-02T03:29:26.491Z,97443.28
2023-05-02T03:32:28.016Z,97450.03
2023-05-02T03:35:29.988Z,97457.63
2023-05-02T03:38:31.523Z,97452.34
2023-05-02T03:41:38.031Z,97461.25
2023-05-02T03:44:42.897Z,97471.22
2023-05-02T03:47:44.441Z,97470.75
2023-05-02T03:50:47.652Z,97482.13
2023-05-02T03:53:49.174Z,97480.66
2023-05-02T03:56:50.807Z,97484.75
2023-05-02T03:59:58.729Z,97491.34
2023-05-02T04:03:03.122Z,97503.22
2023-05-02T04:06:05.974Z,97503.56
2023-05-02T04:09:07.906Z,97514.50
2023-05-02T04:12:31.970Z,97519.09
2023-05-02T04:15:33.487Z,97520.72
2023-05-02T04:18:35.820Z,97524.69
2023-05-02T04:21:40.300Z,97523.03
2023-05-02T04:24:42.268Z,97528.31
2023-05-02T04:27:43.885Z,97532.59
2023-05-02T04:30:52.033Z,97527.66
2023-05-02T04:33:56.345Z,97531.78
2023-05-02T04:37:01.476Z,97538.41
2023-05-02T04:40:03.741Z,97531.50
2023-05-02T04:43:06.305Z,97534.31
2023-05-02T04:46:18.443Z,97545.22
2023-05-02T04:49:20.635Z,97547.88
2023-05-02T04:52:22.134Z,97543.72
2023-05-02T04:55:23.726Z,97546.22
2023-05-02T04:58:25.226Z,97541.94
2023-05-02T05:01:33.334Z,97554.97
2023-05-02T05:04:36.516Z,97546.72
2023-05-02T05:07:39.267Z,97548.19
2023-05-02T05:10:41.075Z,97547.69
2023-05-02T05:13:43.500Z,97557.44
2023-05-02T05:16:46.856Z,97565.56
2023-05-02T05:19:48.533Z,97566.72
2023-05-02T05:22:50.400Z,97571.16
2023-05-02T05:25:53.660Z,97578.22
2023-05-02T05:28:55.227Z,97584.00
2023-05-02T05:31:59.327Z,97586.47
2023-05-02T05:35:02.306Z,97591.25
2023-05-02T05:38:04.002Z,97590.09
2023-05-02T05:41:08.989Z,97614.03
2023-05-02T05:44:12.713Z,97618.34
2023-05-02T05:47:19.579Z,97615.22
2023-05-02T05:50:21.437Z,97616.19
2023-05-02T05:53:23.174Z,97618.19
2023-05-02T05:56:25.653Z,97621.88
2023-05-02T05:59:36.144Z,97617.88
2023-05-02T06:02:38.768Z,97620.88
2023-05-02T06:05:41.059Z,97614.75
2023-05-02T06:08:42.790Z,97620.81
2023-05-02T06:11:44.545Z,97625.47
2023-05-02T06:14:46.465Z,97625.50
2023-05-02T06:17:51.309Z,97636.25
2023-05-02T06:20:52.858Z,97636.34
2023-05-02T06:23:54.710Z,97635.25
2023-05-02T06:26:56.237Z,97637.44
2023-05-02T06:29:57.952Z,97641.47
2023-05-02T06:32:59.715Z,97644.53
2023-05-02T06:36:02.167Z,97642.88
2023-05-02T06:39:03.973Z,97640.50
2023-05-02T06:42:05.487Z,97638.06
2023-05-02T06:45:08.632Z,97640.72
2023-05-02T06:48:10.450Z,97648.81
2023-05-02T06:51:14.626Z,97643.41
2023-05-02T06:54:16.322Z,97646.44
2023-05-02T06:57:17.879Z,97654.31
2023-05-02T07:00:20.220Z,97661.22
2023-05-02T07:03:21.958Z,97656.91
2023-05-02T07:06:24.258Z,97665.34
2023-05-02T07:09:25.798Z,97660.56
2023-05-02T07:12:27.334Z,97661.81
2023-05-02T07:15:28.854Z,97654.59
2023-05-02T07:18:30.405Z,97657.88
2023-05-02T07:21:32.425Z,97655.44
2023-05-02T07:24:33.856Z,97663.00
2023-05-02T07:27:35.460Z,97660.53
2023-05-02T07:30:36.958Z,97659.53
2023-05-02T07:33:38.387Z,97658.59
2023-05-02T07:36:39.954Z,97650.38
2023-05-02T07:39:41.478Z,97652.44
2023-05-02T07:42:44.248Z,97658.59
2023-05-02T07:45:45.794Z,97653.91
2023-05-02T07:48:47.289Z,97661.91
2023-05-02T07:51:48.809Z,97659.97
2023-05-02T07:54:54.002Z,97667.78
2023-05-02T07:57:56.012Z,97674.34
2023-05-02T08:00:57.653Z,97678.00
2023-05-02T08:03:59.401Z,97677.56
2023-05-02T08:07:01.298Z,97673.06
2023-05-02T08:10:03.120Z,97671.19
2023-05-02T08:13:04.880Z,97678.28
2023-05-02T08:16:06.582Z,97669.91
2023-05-02T08:19:08.293Z,97674.84
2023-05-02T08:22:09.887Z,97676.38
2023-05-02T08:25:11.390Z,97678.06
2023-05-02T08:28:13.212Z,97682.13
2023-05-02T08:31:14.931Z,97684.78
2023-05-02T08:34:16.793Z,97686.22
2023-05-02T08:37:18.472Z,97694.16
2023-05-02T08:40:33.623Z,97686.88
2023-05-02T08:43:42.326Z,97696.75
2023-05-02T08:46:44.895Z,97692.06
2023-05-02T08:49:47.077Z,97689.09
2023-05-02T08:52:50.647Z,97694.22
2023-05-02T08:55:52.113Z,97698.16
2023-05-02T08:58:53.620Z,97696.09
2023-05-02T09:02:00.790Z,97699.16
2023-05-02T09:05:07.443Z,97705.34
2023-05-02T09:08:09.178Z,97711.06
2023-05-02T09:11:12.445Z,97690.72
2023-05-02T09:14:16.032Z,97714.53
2023-05-02T09:17:17.590Z,97705.41
2023-05-02T09:20:19.063Z,97708.84
2023-05-02T09:23:20.603Z,97704.09
2023-05-02T09:26:31.062Z,97707.81
2023-05-02T09:29:38.753Z,97718.69
2023-05-02T09:32:48.063Z,97705.13
2023-05-02T09:35:54.683Z,97714.66
2023-05-02T09:39:10.214Z,97714.44
2023-05-02T09:42:11.948Z,97708.59
2023-05-02T09:45:24.078Z,97709.88
2023-05-02T09:48:27.112Z,97704.50
2023-05-02T09:51:28.615Z,97705.72
2023-05-02T09:54:37.042Z,97697.06
2023-05-02T09:57:41.832Z,97703.44
2023-05-02T10:00:45.358Z,97706.00
2023-05-02T10:03:48.229Z,97709.88
2023-05-02T10:06:51.780Z,97702.50
2023-05-02T10:09:54.898Z,97707.47
2023-05-02T10:12:56.561Z,97709.13
2023-05-02T10:16:03.270Z,97710.25
2023-05-02T10:19:09.903Z,97704.72
2023-05-02T10:22:13.072Z,97704.50
2023-05-02T10:25:15.008Z,97706.00
2023-05-02T10:28:16.875Z,97701.28
2023-05-02T10:31:18.972Z,97708.31
2023-05-02T10:34:22.131Z,97693.94
2023-05-02T10:37:27.605Z,97687.84
2023-05-02T10:40:29.602Z,97692.19
2023-05-02T10:43:33.938Z,97689.56
2023-05-02T10:46:37.411Z,97682.78
2023-05-02T10:49:51.451Z,97684.56
2023-05-02T10:52:53.104Z,97669.16
2023-05-02T10:56:13.131Z,97679.97
2023-05-02T10:59:28.962Z,97683.28
2023-05-02T11:02:30.973Z,97684.91
2023-05-02T11:05:37.001Z,97680.94
2023-05-02T11:08:38.686Z,97684.25
2023-05-02T11:11:43.201Z,97689.97
2023-05-02T11:14:47.488Z,97674.66
2023-05-02T11:18:07.691Z,97679.75
2023-05-02T11:21:28.575Z,97674.41
2023-05-02T11:24:40.058Z,97680.78
2023-05-02T11:27:43.756Z,97675.88
2023-05-02T11:30:48.466Z,97674.47
2023-05-02T11:34:03.505Z,97677.09
2023-05-02T11:37:15.102Z,97672.19
2023-05-02T11:40:16.846Z,97665.25
2023-05-02T11:43:21.393Z,97669.88
2023-05-02T11:46:23.143Z,97671.38
2023-05-02T11:49:24.859Z,97673.81
2023-05-02T11:52:26.542Z,97671.25
2023-05-02T11:55:28.030Z,97675.03
2023-05-02T11:58:34.606Z,97658.81
2023-05-02T12:01:36.540Z,97672.72
2023-05-02T12:04:44.785Z,97675.06
2023-05-02T12:07:48.944Z,97670.63
2023-05-02T12:10:52.337Z,97680.91
2023-05-02T12:13:54.713Z,97662.75
2023-05-02T12:16:58.354Z,97664.38
2023-05-02T12:20:00.736Z,97668.00
2023-05-02T12:23:04.054Z,97671.44
2023-05-02T12:26:24.267Z,97663.56
2023-05-02T12:29:45.171Z,97659.94
2023-05-02T12:32:56.034Z,97660.03
2023-05-02T12:36:06.770Z,97659.66
2023-05-02T12:39:08.224Z,97656.84
2023-05-02T12:42:17.442Z,97662.22
2023-05-02T12:45:18.907Z,97659.94
2023-05-02T12:48:25.781Z,97653.56
2023-05-02T12:51:28.704Z,97661.03
2023-05-02T12:54:30.344Z,97665.06
2023-05-02T12:57:31.822Z,97654.34
2023-05-02T13:00:36.732Z,97655.72
2023-05-02T13:03:38.596Z,97646.66
2023-05-02T13:06:40.635Z,97662.63
2023-05-02T13:09:42.085Z,97645.31
2023-05-02T13:12:47.994Z,97655.50
2023-05-02T13:15:49.468Z,97652.59
2023-05-02T13:18:51.180Z,97652.47
2023-05-02T13:21:52.660Z,97658.16
2023-05-02T13:24:54.389Z,97641.09
2023-05-02T13:27:55.810Z,97648.66
2023-05-02T13:30:57.269Z,97651.47
2023-05-02T13:33:58.793Z,97652.13
2023-05-02T13:37:00.756Z,97647.22
2023-05-02T13:40:02.611Z,97646.19
2023-05-02T13:43:04.352Z,97633.25
2023-05-02T13:46:05.932Z,97639.56
2023-05-02T13:49:07.396Z,97629.88
2023-05-02T13:52:08.971Z,97632.59
2023-05-02T13:55:10.428Z,97623.75
2023-05-02T13:58:11.961Z,97625.59
2023-05-02T14:01:13.452Z,97637.19
2023-05-02T14:04:15.077Z,97628.03
2023-05-02T14:07:16.621Z,97630.81
2023-05-02T14:10:18.086Z,97633.56
2023-05-02T14:13:19.557Z,97624.22
2023-05-02T14:16:21.157Z,97637.91
2023-05-02T14:19:22.928Z,97632.19
2023-05-02T14:22:24.459Z,97632.97
2023-05-02T14:25:26.088Z,97628.56
2023-05-02T14:28:27.723Z,97645.03
2023-05-02T14:31:29.290Z,97638.56
2023-05-02T14:34:31.015Z,97656.16
2023-05-02T14:37:32.493Z,97635.72
2023-05-02T14:40:34.046Z,97630.41
2023-05-02T14:43:36.297Z,97628.59
2023-05-02T14:46:37.795Z,97631.72
2023-05-02T14:49:39.275Z,97628.16
2023-05-02T14:52:40.816Z,97633.19
2023-05-02T14:55:42.261Z,97631.75
2023-05-02T14:58:43.834Z,97637.19
2023-05-02T15:01:45.735Z,97618.78
2023-05-02T15:04:47.359Z,97630.03
2023-05-02T15:07:48.857Z,97632.25
2023-05-02T15:10:50.364Z,97635.66
2023-05-02T15:13:51.892Z,97635.13
2023-05-02T15:16:53.391Z,97634.19
2023-05-02T15:19:56.443Z,97648.19
2023-05-02T15:23:03.402Z,97655.88
2023-05-02T15:26:05.134Z,97645.84
2023-05-02T15:29:06.913Z,97642.41
2023-05-02T15:32:09.123Z,97648.28
2023-05-02T15:35:11.609Z,97646.59
2023-05-02T15:38:14.113Z,97664.13
2023-05-02T15:41:15.580Z,97647.22
2023-05-02T15:44:17.279Z,97648.53
2023-05-02T15:47:20.206Z,97653.91
2023-05-02T15:50:23.610Z,97668.09
2023-05-02T15:53:25.225Z,97647.88
2023-05-02T15:56:26.784Z,97658.59
2023-05-02T15:59:28.241Z,97663.31
2023-05-02T16:02:29.717Z,97662.00
2023-05-02T16:05:31.266Z,97662.22
2023-05-02T16:08:32.726Z,97664.41
2023-05-02T16:11:34.245Z,97660.25
2023-05-02T16:14:36.300Z,97656.06
2023-05-02T16:17:37.921Z,97657.13
2023-05-02T16:20:39.628Z,97670.72
2023-05-02T16:23:41.114Z,97677.75
2023-05-02T16:26:42.565Z,97668.03
2023-05-02T16:29:44.083Z,97662.66
2023-05-02T16:32:45.772Z,97667.09
2023-05-02T16:35:47.729Z,97672.75
2023-05-02T16:38:49.212Z,97668.50
2023-05-02T16:41:50.685Z,97670.31
2023-05-02T16:44:52.166Z,97675.28
2023-05-02T16:47:53.661Z,97676.94
2023-05-02T16:50:57.172Z,97679.00
2023-05-02T16:53:58.831Z,97684.97
2023-05-02T16:57:02.610Z,97685.66
2023-05-02T17:00:05.429Z,97693.53
2023-05-02T17:03:07.492Z,97694.47
2023-05-02T17:06:09.116Z,97695.25
2023-05-02T17:09:10.611Z,97689.88
2023-05-02T17:12:12.815Z,97696.56
2023-05-02T17:15:14.373Z,97701.63
2023-05-02T17:18:16.207Z,97695.31
2023-05-02T17:21:17.774Z,97691.94
2023-05-02T17:24:19.461Z,97700.00
2023-05-02T17:27:20.974Z,97701.09
2023-05-02T17:30:23.653Z,97695.00
2023-05-02T17:33:27.371Z,97700.53
2023-05-02T17:36:29.089Z,97695.00
2023-05-02T17:39:30.678Z,97708.06
2023-05-02T17:42:32.293Z,97705.69
2023-05-02T17:45:33.824Z,97712.75
2023-05-02T17:48:36.691Z,97713.50
2023-05-02T17:51:38.163Z,97722.41
2023-05-02T17:54:39.821Z,97723.44
2023-05-02T17:57:41.446Z,97725.06
2023-05-02T18:00:43.561Z,97729.13
2023-05-02T18:03:45.367Z,97731.72
2023-05-02T18:06:47.103Z,97739.13
2023-05-02T18:09:48.576Z,97737.25
2023-05-02T18:12:50.099Z,97736.31
2023-05-02T18:16:04.749Z,97738.78
2023-05-02T18:19:06.628Z,97739.38
2023-05-02T18:22:08.531Z,97743.78
2023-05-02T18:25:10.209Z,97745.47
2023-05-02T18:28:13.245Z,97750.59
2023-05-02T18:31:16.462Z,97755.00
2023-05-02T18:34:18.757Z,97757.31
2023-05-02T18:37:20.249Z,97774.00
2023-05-02T18:40:21.917Z,97770.88
2023-05-02T18:43:23.343Z,97768.41
2023-05-02T18:46:25.051Z,97773.28
2023-05-02T18:49:26.949Z,97773.84
2023-05-02T18:52:30.826Z,97774.41
2023-05-02T18:55:32.925Z,97779.94
2023-05-02T18:58:34.903Z,97779.47
2023-05-02T19:01:36.523Z,97774.69
2023-05-02T19:04:38.026Z,97784.56
2023-05-02T19:07:39.481Z,97791.69
2023-05-02T19:10:41.312Z,97792.16
2023-05-02T19:13:42.810Z,97794.16
2023-05-02T19:16:44.716Z,97792.88
2023-05-02T19:19:48.081Z,97793.41
2023-05-02T19:22:50.005Z,97799.84
2023-05-02T19:25:51.562Z,97794.97
2023-05-02T19:28:53.172Z,97801.19
2023-05-02T19:31:54.634Z,97805.16
2023-05-02T19:34:56.768Z,97814.81
2023-05-02T19:37:58.306Z,97818.59
2023-05-02T19:41:00.793Z,97820.75
2023-05-02T19:44:02.242Z,97828.09
2023-05-02T19:47:03.890Z,97832.56
2023-05-02T19:50:05.932Z,97828.25
2023-05-02T19:53:07.481Z,97834.09
2023-05-02T19:56:08.988Z,97841.94
2023-05-02T19:59:10.514Z,97841.56
2023-05-02T20:02:12.012Z,97840.56
2023-05-02T20:05:13.585Z,97843.66
2023-05-02T20:08:16.197Z,97851.00
2023-05-02T20:11:17.631Z,97856.22
2023-05-02T20:14:19.275Z,97857.75
2023-05-02T20:17:20.935Z,97853.66
2023-05-02T20:20:23.136Z,97860.50
2023-05-02T20:23:30.808Z,97865.81
2023-05-02T20:26:33.795Z,97866.97
2023-05-02T20:29:35.555Z,97870.66
2023-05-02T20:32:37.166Z,97871.72
2023-05-02T20:35:38.688Z,97869.28
2023-05-02T20:38:42.359Z,97869.94
2023-05-02T20:41:45.249Z,97863.88
2023-05-02T20:44:56.307Z,97868.84
2023-05-02T20:47:57.755Z,97875.31
2023-05-02T20:50:59.286Z,97864.91
2023-05-02T20:54:00.814Z,97873.81
2023-05-02T20:57:03.500Z,97868.53
2023-05-02T21:00:06.256Z,97869.50
2023-05-02T21:03:07.734Z,97860.13
2023-05-02T21:06:09.328Z,97864.06
2023-05-02T21:09:10.785Z,97863.91
2023-05-02T21:12:12.277Z,97867.03
2023-05-02T21:15:14.384Z,97868.47
2023-05-02T21:18:15.975Z,97869.78
2023-05-02T21:21:17.623Z,97873.91
2023-05-02T21:24:19.123Z,97874.53
2023-05-02T21:27:20.761Z,97879.63
2023-05-02T21:30:24.196Z,97873.19
2023-05-02T21:33:25.671Z,97879.97
2023-05-02T21:36:27.341Z,97875.66
2023-05-02T21:39:28.863Z,97875.97
2023-05-02T21:42:30.401Z,97875.91
2023-05-02T21:45:32.746Z,97874.72
2023-05-02T21:48:34.343Z,97879.16
2023-05-02T21:51:38.609Z,97875.00
2023-05-02T21:54:40.268Z,97875.50
2023-05-02T21:57:41.726Z,97859.44
2023-05-02T22:00:43.328Z,97874.63
2023-05-02T22:03:44.903Z,97870.66
2023-05-02T22:06:51.351Z,97877.22
2023-05-02T22:09:53.328Z,97881.00
2023-05-02T22:12:55.391Z,97872.88
2023-05-02T22:15:56.909Z,97874.47
2023-05-02T22:18:58.410Z,97884.03
2023-05-02T22:22:01.569Z,97879.50
2023-05-02T22:25:03.121Z,97877.34
2023-05-02T22:28:06.877Z,97876.72
2023-05-02T22:31:08.754Z,97875.25
2023-05-02T22:34:10.966Z,97874.63
2023-05-02T22:37:12.565Z,97874.28
2023-05-02T22:40:14.920Z,97881.81
2023-05-02T22:43:16.812Z,97876.97
2023-05-02T22:46:18.599Z,97884.09
2023-05-02T22:49:20.490Z,97881.91
2023-05-02T22:52:22.449Z,97881.97
2023-05-02T22:55:24.211Z,97879.06
2023-05-02T22:58:25.767Z,97889.66
2023-05-02T23:01:28.191Z,97884.38
2023-05-02T23:04:32.674Z,97879.91
2023-05-02T23:07:34.108Z,97884.97
2023-05-02T23:10:35.577Z,97878.47
2023-05-02T23:13:37.048Z,97882.69
2023-05-02T23:16:38.848Z,97883.81
2023-05-02T23:19:40.583Z,97882.31
2023-05-02T23:22:46.320Z,97886.06
2023-05-02T23:25:47.821Z,97886.81
2023-05-02T23:28:49.270Z,97874.38
2023-05-02T23:31:53.410Z,97881.31
2023-05-02T23:34:55.262Z,97884.75
2023-05-02T23:37:59.579Z,97880.34
2023-05-02T23:41:01.124Z,97885.75
2023-05-02T23:44:02.566Z,97885.06
2023-05-02T23:47:04.200Z,97883.13
2023-05-02T23:50:06.264Z,97886.03
2023-05-02T23:53:07.738Z,97884.25
2023-05-02T23:56:09.766Z,97876.38
2023-05-02T23:59:11.268Z,97882.00
